sensor_id;sensor_type;location;lat;lon;timestamp;temperature;humidity
21830;DHT22;11077;50.264;6.798;2023-05-24T00:00:14;7.10;99.90
21830;DHT22;11077;50.264;6.798;2023-05-24T00:02:43;7.10;99.90
21830;DHT22;11077;50.264;6.798;2023-05-24T00:05:10;7.10;99.90
21830;DHT22;11077;50.264;6.798;2023-05-24T00:07:39;7.10;99.90
21830;DHT22;11077;50.264;6.798;2023-05-24T00:10:08;7.00;99.90
21830;DHT22;11077;50.264;6.798;2023-05-24T00:12:35;7.00;99.90
21830;DHT22;11077;50.264;6.798;2023-05-24T00:15:03;7.00;99.90
21830;DHT22;11077;50.264;6.798;2023-05-24T00:17:30;6.90;99.90
21830;DHT22;11077;50.264;6.798;2023-05-24T00:20:00;6.90;99.90
21830;DHT22;11077;50.264;6.798;2023-05-24T00:22:28;6.90;99.90
21830;DHT22;11077;50.264;6.798;2023-05-24T00:24:55;6.80;99.90
21830;DHT22;11077;50.264;6.798;2023-05-24T00:27:22;6.80;99.90
21830;DHT22;11077;50.264;6.798;2023-05-24T00:29:51;6.80;99.90
21830;DHT22;11077;50.264;6.798;2023-05-24T00:32:20;6.70;99.90
21830;DHT22;11077;50.264;6.798;2023-05-24T00:34:47;6.70;99.90
21830;DHT22;11077;50.264;6.798;2023-05-24T00:37:16;6.60;99.90
21830;DHT22;11077;50.264;6.798;2023-05-24T00:39:43;6.60;99.90
21830;DHT22;11077;50.264;6.798;2023-05-24T00:42:10;6.60;99.90
21830;DHT22;11077;50.264;6.798;2023-05-24T00:44:37;6.60;99.90
21830;DHT22;11077;50.264;6.798;2023-05-24T00:47:05;6.60;99.90
21830;DHT22;11077;50.264;6.798;2023-05-24T00:49:34;6.50;99.90
21830;DHT22;11077;50.264;6.798;2023-05-24T00:52:01;6.50;99.90
21830;DHT22;11077;50.264;6.798;2023-05-24T00:54:29;6.50;99.90
21830;DHT22;11077;50.264;6.798;2023-05-24T00:56:57;6.50;99.90
21830;DHT22;11077;50.264;6.798;2023-05-24T00:59:25;6.40;99.90
21830;DHT22;11077;50.264;6.798;2023-05-24T01:01:52;6.40;99.90
21830;DHT22;11077;50.264;6.798;2023-05-24T01:04:20;6.40;99.90
21830;DHT22;11077;50.264;6.798;2023-05-24T01:07:02;6.30;99.90
21830;DHT22;11077;50.264;6.798;2023-05-24T01:09:40;6.30;99.90
21830;DHT22;11077;50.264;6.798;2023-05-24T01:12:18;6.30;99.90
21830;DHT22;11077;50.264;6.798;2023-05-24T01:14:56;6.20;99.90
21830;DHT22;11077;50.264;6.798;2023-05-24T01:17:28;6.20;99.90
21830;DHT22;11077;50.264;6.798;2023-05-24T01:19:59;6.10;99.90
21830;DHT22;11077;50.264;6.798;2023-05-24T01:26:02;6.10;99.90
21830;DHT22;11077;50.264;6.798;2023-05-24T01:28:35;6.00;99.90
21830;DHT22;11077;50.264;6.798;2023-05-24T01:31:03;5.90;99.90
21830;DHT22;11077;50.264;6.798;2023-05-24T01:33:31;5.90;99.90
21830;DHT22;11077;50.264;6.798;2023-05-24T01:35:58;5.90;99.90
21830;DHT22;11077;50.264;6.798;2023-05-24T01:38:25;5.80;99.90
21830;DHT22;11077;50.264;6.798;2023-05-24T01:40:58;5.80;99.90
21830;DHT22;11077;50.264;6.798;2023-05-24T01:43:32;5.70;99.90
21830;DHT22;11077;50.264;6.798;2023-05-24T01:46:08;5.70;99.90
21830;DHT22;11077;50.264;6.798;2023-05-24T01:48:44;5.70;99.90
21830;DHT22;11077;50.264;6.798;2023-05-24T01:51:17;5.70;99.90
21830;DHT22;11077;50.264;6.798;2023-05-24T01:53:45;5.60;99.90
21830;DHT22;11077;50.264;6.798;2023-05-24T01:56:16;5.60;99.90
21830;DHT22;11077;50.264;6.798;2023-05-24T01:58:45;5.60;99.90
21830;DHT22;11077;50.264;6.798;2023-05-24T02:01:14;5.60;99.90
21830;DHT22;11077;50.264;6.798;2023-05-24T02:03:41;5.60;99.90
21830;DHT22;11077;50.264;6.798;2023-05-24T02:06:09;5.50;99.90
21830;DHT22;11077;50.264;6.798;2023-05-24T02:08:38;5.50;99.90
21830;DHT22;11077;50.264;6.798;2023-05-24T02:11:06;5.50;99.90
21830;DHT22;11077;50.264;6.798;2023-05-24T02:13:33;5.40;99.90
21830;DHT22;11077;50.264;6.798;2023-05-24T02:16:00;5.30;99.90
21830;DHT22;11077;50.264;6.798;2023-05-24T02:18:31;5.20;99.90
21830;DHT22;11077;50.264;6.798;2023-05-24T02:20:59;5.10;99.90
21830;DHT22;11077;50.264;6.798;2023-05-24T02:23:27;5.00;99.90
21830;DHT22;11077;50.264;6.798;2023-05-24T02:25:54;5.00;99.90
21830;DHT22;11077;50.264;6.798;2023-05-24T02:28:21;5.00;99.90
21830;DHT22;11077;50.264;6.798;2023-05-24T02:30:48;5.00;99.90
21830;DHT22;11077;50.264;6.798;2023-05-24T02:33:16;5.00;99.90
21830;DHT22;11077;50.264;6.798;2023-05-24T02:35:44;5.00;99.90
21830;DHT22;11077;50.264;6.798;2023-05-24T02:38:11;4.90;99.90
21830;DHT22;11077;50.264;6.798;2023-05-24T02:40:38;4.90;99.90
21830;DHT22;11077;50.264;6.798;2023-05-24T02:43:05;4.90;99.90
21830;DHT22;11077;50.264;6.798;2023-05-24T02:45:34;4.90;99.90
21830;DHT22;11077;50.264;6.798;2023-05-24T02:48:02;4.80;99.90
21830;DHT22;11077;50.264;6.798;2023-05-24T02:50:29;4.80;99.90
21830;DHT22;11077;50.264;6.798;2023-05-24T02:52:58;4.80;99.90
21830;DHT22;11077;50.264;6.798;2023-05-24T02:55:25;4.70;99.90
21830;DHT22;11077;50.264;6.798;2023-05-24T02:57:53;4.70;99.90
21830;DHT22;11077;50.264;6.798;2023-05-24T03:00:21;4.60;99.90
21830;DHT22;11077;50.264;6.798;2023-05-24T03:02:48;4.60;99.90
21830;DHT22;11077;50.264;6.798;2023-05-24T03:05:17;4.60;99.90
21830;DHT22;11077;50.264;6.798;2023-05-24T03:07:44;4.60;99.90
21830;DHT22;11077;50.264;6.798;2023-05-24T03:10:13;4.50;99.90
21830;DHT22;11077;50.264;6.798;2023-05-24T03:12:40;4.50;99.90
21830;DHT22;11077;50.264;6.798;2023-05-24T03:15:08;4.50;99.90
21830;DHT22;11077;50.264;6.798;2023-05-24T03:17:36;4.40;99.90
21830;DHT22;11077;50.264;6.798;2023-05-24T03:20:04;4.40;99.90
21830;DHT22;11077;50.264;6.798;2023-05-24T03:22:31;4.30;99.90
21830;DHT22;11077;50.264;6.798;2023-05-24T03:24:58;4.20;99.90
21830;DHT22;11077;50.264;6.798;2023-05-24T03:27:27;4.20;99.90
21830;DHT22;11077;50.264;6.798;2023-05-24T03:29:54;4.20;99.90
21830;DHT22;11077;50.264;6.798;2023-05-24T03:32:25;4.20;99.90
21830;DHT22;11077;50.264;6.798;2023-05-24T03:34:52;4.10;99.90
21830;DHT22;11077;50.264;6.798;2023-05-24T03:37:21;4.10;99.90
21830;DHT22;11077;50.264;6.798;2023-05-24T03:39:49;4.10;99.90
21830;DHT22;11077;50.264;6.798;2023-05-24T03:42:31;4.00;99.90
21830;DHT22;11077;50.264;6.798;2023-05-24T03:44:58;3.90;99.90
21830;DHT22;11077;50.264;6.798;2023-05-24T03:47:25;3.90;99.90
21830;DHT22;11077;50.264;6.798;2023-05-24T03:49:53;3.90;99.90
21830;DHT22;11077;50.264;6.798;2023-05-24T03:52:20;3.80;99.90
21830;DHT22;11077;50.264;6.798;2023-05-24T03:54:47;3.80;99.90
21830;DHT22;11077;50.264;6.798;2023-05-24T03:57:14;3.80;99.90
21830;DHT22;11077;50.264;6.798;2023-05-24T03:59:43;3.70;99.90
21830;DHT22;11077;50.264;6.798;2023-05-24T04:02:10;3.70;99.90
21830;DHT22;11077;50.264;6.798;2023-05-24T04:04:37;3.70;99.90
21830;DHT22;11077;50.264;6.798;2023-05-24T04:07:04;3.70;99.90
21830;DHT22;11077;50.264;6.798;2023-05-24T04:09:32;3.70;99.90
21830;DHT22;11077;50.264;6.798;2023-05-24T04:11:59;3.60;99.90
21830;DHT22;11077;50.264;6.798;2023-05-24T04:14:27;3.60;99.90
21830;DHT22;11077;50.264;6.798;2023-05-24T04:16:55;3.50;99.90
21830;DHT22;11077;50.264;6.798;2023-05-24T04:19:22;3.50;99.90
21830;DHT22;11077;50.264;6.798;2023-05-24T04:21:50;3.50;99.90
21830;DHT22;11077;50.264;6.798;2023-05-24T04:24:17;3.50;99.90
21830;DHT22;11077;50.264;6.798;2023-05-24T04:26:44;3.50;99.90
21830;DHT22;11077;50.264;6.798;2023-05-24T04:29:12;3.50;99.90
21830;DHT22;11077;50.264;6.798;2023-05-24T04:31:39;3.50;99.90
21830;DHT22;11077;50.264;6.798;2023-05-24T04:34:09;3.50;99.90
21830;DHT22;11077;50.264;6.798;2023-05-24T04:36:38;3.50;99.90
21830;DHT22;11077;50.264;6.798;2023-05-24T04:39:08;3.50;99.90
21830;DHT22;11077;50.264;6.798;2023-05-24T04:41:36;3.50;99.90
21830;DHT22;11077;50.264;6.798;2023-05-24T04:44:03;3.50;99.90
21830;DHT22;11077;50.264;6.798;2023-05-24T04:46:30;3.50;99.90
21830;DHT22;11077;50.264;6.798;2023-05-24T04:49:00;3.50;99.90
21830;DHT22;11077;50.264;6.798;2023-05-24T04:51:29;3.50;99.90
21830;DHT22;11077;50.264;6.798;2023-05-24T04:53:56;3.60;99.90
21830;DHT22;11077;50.264;6.798;2023-05-24T04:56:23;3.60;99.90
21830;DHT22;11077;50.264;6.798;2023-05-24T04:58:50;3.60;99.90
21830;DHT22;11077;50.264;6.798;2023-05-24T05:01:18;3.60;99.90
21830;DHT22;11077;50.264;6.798;2023-05-24T05:03:46;3.80;99.90
21830;DHT22;11077;50.264;6.798;2023-05-24T05:06:13;3.80;99.90
21830;DHT22;11077;50.264;6.798;2023-05-24T05:08:41;3.90;99.90
21830;DHT22;11077;50.264;6.798;2023-05-24T05:11:09;3.90;99.90
21830;DHT22;11077;50.264;6.798;2023-05-24T05:13:36;4.00;99.90
21830;DHT22;11077;50.264;6.798;2023-05-24T05:16:03;4.10;99.90
21830;DHT22;11077;50.264;6.798;2023-05-24T05:18:31;4.10;99.90
21830;DHT22;11077;50.264;6.798;2023-05-24T05:20:58;4.20;99.90
21830;DHT22;11077;50.264;6.798;2023-05-24T05:23:25;4.20;99.90
21830;DHT22;11077;50.264;6.798;2023-05-24T05:25:54;4.30;99.90
21830;DHT22;11077;50.264;6.798;2023-05-24T05:28:21;4.30;99.90
21830;DHT22;11077;50.264;6.798;2023-05-24T05:30:48;4.30;99.90
21830;DHT22;11077;50.264;6.798;2023-05-24T05:33:15;4.40;99.90
21830;DHT22;11077;50.264;6.798;2023-05-24T05:35:43;4.40;99.90
21830;DHT22;11077;50.264;6.798;2023-05-24T05:38:10;4.50;99.90
21830;DHT22;11077;50.264;6.798;2023-05-24T05:40:37;4.50;99.90
21830;DHT22;11077;50.264;6.798;2023-05-24T05:43:05;4.60;99.90
21830;DHT22;11077;50.264;6.798;2023-05-24T05:45:34;4.70;99.90
21830;DHT22;11077;50.264;6.798;2023-05-24T05:48:01;4.70;99.90
21830;DHT22;11077;50.264;6.798;2023-05-24T05:50:28;4.80;99.90
21830;DHT22;11077;50.264;6.798;2023-05-24T05:52:55;4.90;99.90
21830;DHT22;11077;50.264;6.798;2023-05-24T05:55:22;4.90;99.90
21830;DHT22;11077;50.264;6.798;2023-05-24T05:57:50;5.00;99.90
21830;DHT22;11077;50.264;6.798;2023-05-24T06:00:20;5.20;99.90
21830;DHT22;11077;50.264;6.798;2023-05-24T06:02:48;5.20;99.90
21830;DHT22;11077;50.264;6.798;2023-05-24T06:05:16;5.30;99.90
21830;DHT22;11077;50.264;6.798;2023-05-24T06:07:44;5.40;99.90
21830;DHT22;11077;50.264;6.798;2023-05-24T06:10:12;5.50;99.90
21830;DHT22;11077;50.264;6.798;2023-05-24T06:12:39;5.60;99.90
21830;DHT22;11077;50.264;6.798;2023-05-24T06:15:07;5.80;99.90
21830;DHT22;11077;50.264;6.798;2023-05-24T06:17:36;5.90;99.90
21830;DHT22;11077;50.264;6.798;2023-05-24T06:20:04;6.00;99.90
21830;DHT22;11077;50.264;6.798;2023-05-24T06:22:33;6.10;99.90
21830;DHT22;11077;50.264;6.798;2023-05-24T06:25:03;6.20;99.90
21830;DHT22;11077;50.264;6.798;2023-05-24T06:27:31;6.30;99.90
21830;DHT22;11077;50.264;6.798;2023-05-24T06:29:58;6.30;99.90
21830;DHT22;11077;50.264;6.798;2023-05-24T06:32:25;6.40;99.90
21830;DHT22;11077;50.264;6.798;2023-05-24T06:34:54;6.50;99.90
21830;DHT22;11077;50.264;6.798;2023-05-24T06:37:21;6.60;99.90
21830;DHT22;11077;50.264;6.798;2023-05-24T06:39:50;6.60;99.90
21830;DHT22;11077;50.264;6.798;2023-05-24T06:42:17;6.70;99.90
21830;DHT22;11077;50.264;6.798;2023-05-24T06:44:45;6.80;99.90
21830;DHT22;11077;50.264;6.798;2023-05-24T06:47:12;6.90;99.90
21830;DHT22;11077;50.264;6.798;2023-05-24T06:49:39;6.90;99.90
21830;DHT22;11077;50.264;6.798;2023-05-24T06:52:08;7.00;99.90
21830;DHT22;11077;50.264;6.798;2023-05-24T06:54:36;6.90;99.90
21830;DHT22;11077;50.264;6.798;2023-05-24T06:57:03;6.90;99.90
21830;DHT22;11077;50.264;6.798;2023-05-24T06:59:31;6.90;99.90
21830;DHT22;11077;50.264;6.798;2023-05-24T07:01:58;6.90;99.90
21830;DHT22;11077;50.264;6.798;2023-05-24T07:04:25;7.00;99.90
21830;DHT22;11077;50.264;6.798;2023-05-24T07:06:53;7.00;99.90
21830;DHT22;11077;50.264;6.798;2023-05-24T07:09:21;7.30;99.90
21830;DHT22;11077;50.264;6.798;2023-05-24T07:11:49;7.50;99.90
21830;DHT22;11077;50.264;6.798;2023-05-24T07:14:16;7.60;99.90
21830;DHT22;11077;50.264;6.798;2023-05-24T07:16:43;7.80;99.90
21830;DHT22;11077;50.264;6.798;2023-05-24T07:19:11;7.90;99.90
21830;DHT22;11077;50.264;6.798;2023-05-24T07:21:38;8.20;99.90
21830;DHT22;11077;50.264;6.798;2023-05-24T07:24:05;8.40;99.90
21830;DHT22;11077;50.264;6.798;2023-05-24T07:26:34;8.50;99.90
21830;DHT22;11077;50.264;6.798;2023-05-24T07:29:01;8.50;99.90
21830;DHT22;11077;50.264;6.798;2023-05-24T07:31:28;8.20;99.90
21830;DHT22;11077;50.264;6.798;2023-05-24T07:33:57;8.20;99.90
21830;DHT22;11077;50.264;6.798;2023-05-24T07:36:24;8.20;99.90
21830;DHT22;11077;50.264;6.798;2023-05-24T07:38:51;8.30;99.90
21830;DHT22;11077;50.264;6.798;2023-05-24T07:41:19;8.40;99.90
21830;DHT22;11077;50.264;6.798;2023-05-24T07:43:52;8.50;99.90
21830;DHT22;11077;50.264;6.798;2023-05-24T07:46:20;8.60;99.90
21830;DHT22;11077;50.264;6.798;2023-05-24T07:48:47;8.80;99.90
21830;DHT22;11077;50.264;6.798;2023-05-24T07:51:14;8.90;99.90
21830;DHT22;11077;50.264;6.798;2023-05-24T07:53:41;9.10;99.90
21830;DHT22;11077;50.264;6.798;2023-05-24T07:56:09;9.30;99.90
21830;DHT22;11077;50.264;6.798;2023-05-24T07:58:36;9.40;99.90
21830;DHT22;11077;50.264;6.798;2023-05-24T08:01:06;9.50;99.90
21830;DHT22;11077;50.264;6.798;2023-05-24T08:03:33;9.70;99.90
21830;DHT22;11077;50.264;6.798;2023-05-24T08:06:01;9.90;99.90
21830;DHT22;11077;50.264;6.798;2023-05-24T08:08:28;10.10;99.90
21830;DHT22;11077;50.264;6.798;2023-05-24T08:10:55;10.30;99.90
21830;DHT22;11077;50.264;6.798;2023-05-24T08:13:23;10.20;99.90
21830;DHT22;11077;50.264;6.798;2023-05-24T08:15:50;10.30;99.90
21830;DHT22;11077;50.264;6.798;2023-05-24T08:18:18;10.40;99.90
21830;DHT22;11077;50.264;6.798;2023-05-24T08:20:46;10.40;99.90
21830;DHT22;11077;50.264;6.798;2023-05-24T08:23:13;10.60;99.90
21830;DHT22;11077;50.264;6.798;2023-05-24T08:25:40;10.70;99.90
21830;DHT22;11077;50.264;6.798;2023-05-24T08:28:07;10.70;99.90
21830;DHT22;11077;50.264;6.798;2023-05-24T08:30:35;10.80;99.90
21830;DHT22;11077;50.264;6.798;2023-05-24T08:33:03;11.00;99.90
21830;DHT22;11077;50.264;6.798;2023-05-24T08:35:31;11.20;99.90
21830;DHT22;11077;50.264;6.798;2023-05-24T08:38:00;11.40;99.90
21830;DHT22;11077;50.264;6.798;2023-05-24T08:40:27;11.60;99.90
21830;DHT22;11077;50.264;6.798;2023-05-24T08:42:56;11.80;99.90
21830;DHT22;11077;50.264;6.798;2023-05-24T08:45:25;12.10;99.90
21830;DHT22;11077;50.264;6.798;2023-05-24T08:47:56;12.10;99.90
21830;DHT22;11077;50.264;6.798;2023-05-24T08:50:24;12.30;99.90
21830;DHT22;11077;50.264;6.798;2023-05-24T08:52:53;12.40;99.90
21830;DHT22;11077;50.264;6.798;2023-05-24T08:55:24;12.50;99.90
21830;DHT22;11077;50.264;6.798;2023-05-24T08:57:51;12.60;99.90
21830;DHT22;11077;50.264;6.798;2023-05-24T09:00:19;12.70;99.90
21830;DHT22;11077;50.264;6.798;2023-05-24T09:02:47;12.80;99.90
21830;DHT22;11077;50.264;6.798;2023-05-24T09:05:15;13.00;99.90
21830;DHT22;11077;50.264;6.798;2023-05-24T09:07:47;13.10;99.90
21830;DHT22;11077;50.264;6.798;2023-05-24T09:10:19;13.20;99.90
21830;DHT22;11077;50.264;6.798;2023-05-24T09:12:51;13.30;99.90
21830;DHT22;11077;50.264;6.798;2023-05-24T09:15:20;13.10;99.90
21830;DHT22;11077;50.264;6.798;2023-05-24T09:17:48;13.40;99.90
21830;DHT22;11077;50.264;6.798;2023-05-24T09:20:15;13.30;99.90
21830;DHT22;11077;50.264;6.798;2023-05-24T09:22:42;13.30;99.90
21830;DHT22;11077;50.264;6.798;2023-05-24T09:25:12;13.40;99.90
21830;DHT22;11077;50.264;6.798;2023-05-24T09:27:42;13.50;99.90
21830;DHT22;11077;50.264;6.798;2023-05-24T09:30:10;13.40;99.90
21830;DHT22;11077;50.264;6.798;2023-05-24T09:32:37;13.40;99.90
21830;DHT22;11077;50.264;6.798;2023-05-24T09:35:07;13.60;99.90
21830;DHT22;11077;50.264;6.798;2023-05-24T09:37:35;13.60;99.90
21830;DHT22;11077;50.264;6.798;2023-05-24T09:40:04;13.70;99.90
21830;DHT22;11077;50.264;6.798;2023-05-24T09:42:33;13.90;99.90
21830;DHT22;11077;50.264;6.798;2023-05-24T09:45:03;13.80;99.90
21830;DHT22;11077;50.264;6.798;2023-05-24T09:47:32;13.70;99.90
21830;DHT22;11077;50.264;6.798;2023-05-24T09:50:00;13.80;99.90
21830;DHT22;11077;50.264;6.798;2023-05-24T09:52:28;14.00;99.90
21830;DHT22;11077;50.264;6.798;2023-05-24T09:54:55;14.00;99.90
21830;DHT22;11077;50.264;6.798;2023-05-24T09:57:22;14.10;99.90
21830;DHT22;11077;50.264;6.798;2023-05-24T09:59:51;14.10;99.90
21830;DHT22;11077;50.264;6.798;2023-05-24T10:02:21;14.10;99.90
21830;DHT22;11077;50.264;6.798;2023-05-24T10:04:57;14.40;99.90
21830;DHT22;11077;50.264;6.798;2023-05-24T10:07:25;14.60;99.90
21830;DHT22;11077;50.264;6.798;2023-05-24T10:09:53;14.90;99.90
21830;DHT22;11077;50.264;6.798;2023-05-24T10:12:20;15.20;99.90
21830;DHT22;11077;50.264;6.798;2023-05-24T10:14:50;15.30;99.90
21830;DHT22;11077;50.264;6.798;2023-05-24T10:17:18;15.50;99.90
21830;DHT22;11077;50.264;6.798;2023-05-24T10:19:47;15.50;99.90
21830;DHT22;11077;50.264;6.798;2023-05-24T10:22:14;15.40;99.90
21830;DHT22;11077;50.264;6.798;2023-05-24T10:24:45;15.60;99.90
21830;DHT22;11077;50.264;6.798;2023-05-24T10:27:16;15.80;99.90
21830;DHT22;11077;50.264;6.798;2023-05-24T10:29:51;16.20;99.90
21830;DHT22;11077;50.264;6.798;2023-05-24T10:32:21;16.50;99.90
21830;DHT22;11077;50.264;6.798;2023-05-24T10:34:51;16.40;99.90
21830;DHT22;11077;50.264;6.798;2023-05-24T10:37:19;16.10;99.90
21830;DHT22;11077;50.264;6.798;2023-05-24T10:39:46;16.00;99.90
21830;DHT22;11077;50.264;6.798;2023-05-24T10:42:14;15.60;99.90
21830;DHT22;11077;50.264;6.798;2023-05-24T10:44:43;15.70;99.90
21830;DHT22;11077;50.264;6.798;2023-05-24T10:47:11;15.80;99.90
21830;DHT22;11077;50.264;6.798;2023-05-24T10:49:47;15.80;99.90
21830;DHT22;11077;50.264;6.798;2023-05-24T10:52:17;15.90;99.90
21830;DHT22;11077;50.264;6.798;2023-05-24T10:55:09;15.60;99.90
21830;DHT22;11077;50.264;6.798;2023-05-24T10:57:38;15.30;99.90
21830;DHT22;11077;50.264;6.798;2023-05-24T11:00:25;15.00;99.90
21830;DHT22;11077;50.264;6.798;2023-05-24T11:02:59;14.60;99.90
21830;DHT22;11077;50.264;6.798;2023-05-24T11:05:33;14.40;99.90
21830;DHT22;11077;50.264;6.798;2023-05-24T11:08:01;14.30;99.90
21830;DHT22;11077;50.264;6.798;2023-05-24T11:10:30;14.40;99.90
21830;DHT22;11077;50.264;6.798;2023-05-24T11:12:59;14.50;99.90
21830;DHT22;11077;50.264;6.798;2023-05-24T11:15:26;14.50;99.90
21830;DHT22;11077;50.264;6.798;2023-05-24T11:18:13;14.40;99.90
21830;DHT22;11077;50.264;6.798;2023-05-24T11:20:41;14.70;99.90
21830;DHT22;11077;50.264;6.798;2023-05-24T11:23:11;14.80;99.90
21830;DHT22;11077;50.264;6.798;2023-05-24T11:25:40;14.60;99.90
21830;DHT22;11077;50.264;6.798;2023-05-24T11:28:08;14.50;99.90
21830;DHT22;11077;50.264;6.798;2023-05-24T11:30:38;14.70;99.90
21830;DHT22;11077;50.264;6.798;2023-05-24T11:33:13;14.80;99.90
21830;DHT22;11077;50.264;6.798;2023-05-24T11:35:40;15.00;99.90
21830;DHT22;11077;50.264;6.798;2023-05-24T11:38:10;15.30;99.90
21830;DHT22;11077;50.264;6.798;2023-05-24T11:40:40;15.00;99.90
21830;DHT22;11077;50.264;6.798;2023-05-24T11:43:11;14.80;99.90
21830;DHT22;11077;50.264;6.798;2023-05-24T11:45:41;15.00;99.90
21830;DHT22;11077;50.264;6.798;2023-05-24T11:48:09;15.00;99.90
21830;DHT22;11077;50.264;6.798;2023-05-24T11:50:38;15.00;99.90
21830;DHT22;11077;50.264;6.798;2023-05-24T11:53:08;15.00;99.90
21830;DHT22;11077;50.264;6.798;2023-05-24T11:55:37;14.70;99.90
21830;DHT22;11077;50.264;6.798;2023-05-24T12:00:50;14.50;99.90
21830;DHT22;11077;50.264;6.798;2023-05-24T12:03:17;14.30;99.90
21830;DHT22;11077;50.264;6.798;2023-05-24T12:05:45;14.00;99.90
21830;DHT22;11077;50.264;6.798;2023-05-24T12:08:12;13.90;99.90
21830;DHT22;11077;50.264;6.798;2023-05-24T12:10:42;13.80;99.90
21830;DHT22;11077;50.264;6.798;2023-05-24T12:13:19;13.80;99.90
21830;DHT22;11077;50.264;6.798;2023-05-24T12:15:49;13.70;99.90
21830;DHT22;11077;50.264;6.798;2023-05-24T12:18:18;13.80;99.90
21830;DHT22;11077;50.264;6.798;2023-05-24T12:20:45;13.90;99.90
21830;DHT22;11077;50.264;6.798;2023-05-24T12:23:13;14.00;99.90
21830;DHT22;11077;50.264;6.798;2023-05-24T12:25:43;14.10;99.90
21830;DHT22;11077;50.264;6.798;2023-05-24T12:28:11;14.00;99.90
21830;DHT22;11077;50.264;6.798;2023-05-24T12:30:39;14.10;99.90
21830;DHT22;11077;50.264;6.798;2023-05-24T12:33:08;14.00;99.90
21830;DHT22;11077;50.264;6.798;2023-05-24T12:35:36;13.90;99.90
21830;DHT22;11077;50.264;6.798;2023-05-24T12:38:07;13.80;99.90
21830;DHT22;11077;50.264;6.798;2023-05-24T12:40:35;13.90;99.90
21830;DHT22;11077;50.264;6.798;2023-05-24T12:43:04;13.80;99.90
21830;DHT22;11077;50.264;6.798;2023-05-24T12:45:31;13.60;99.90
21830;DHT22;11077;50.264;6.798;2023-05-24T12:47:59;13.40;99.90
21830;DHT22;11077;50.264;6.798;2023-05-24T12:50:27;13.20;99.90
21830;DHT22;11077;50.264;6.798;2023-05-24T12:52:55;13.20;99.90
21830;DHT22;11077;50.264;6.798;2023-05-24T12:55:24;13.20;99.90
21830;DHT22;11077;50.264;6.798;2023-05-24T12:57:52;13.10;99.90
21830;DHT22;11077;50.264;6.798;2023-05-24T13:00:22;13.20;99.90
21830;DHT22;11077;50.264;6.798;2023-05-24T13:02:51;13.30;99.90
21830;DHT22;11077;50.264;6.798;2023-05-24T13:05:21;13.40;99.90
21830;DHT22;11077;50.264;6.798;2023-05-24T13:07:49;13.50;99.90
21830;DHT22;11077;50.264;6.798;2023-05-24T13:10:17;13.50;99.90
21830;DHT22;11077;50.264;6.798;2023-05-24T13:12:44;13.50;99.90
21830;DHT22;11077;50.264;6.798;2023-05-24T13:15:11;13.50;99.90
21830;DHT22;11077;50.264;6.798;2023-05-24T13:17:41;13.60;99.90
21830;DHT22;11077;50.264;6.798;2023-05-24T13:20:09;13.60;99.90
21830;DHT22;11077;50.264;6.798;2023-05-24T13:22:37;13.80;99.90
21830;DHT22;11077;50.264;6.798;2023-05-24T13:25:05;13.90;99.90
21830;DHT22;11077;50.264;6.798;2023-05-24T13:27:33;13.80;99.90
21830;DHT22;11077;50.264;6.798;2023-05-24T13:30:00;13.80;99.90
21830;DHT22;11077;50.264;6.798;2023-05-24T13:32:28;13.80;99.90
21830;DHT22;11077;50.264;6.798;2023-05-24T13:34:56;13.50;99.90
21830;DHT22;11077;50.264;6.798;2023-05-24T13:37:24;13.50;99.90
21830;DHT22;11077;50.264;6.798;2023-05-24T13:39:52;13.50;99.90
21830;DHT22;11077;50.264;6.798;2023-05-24T13:42:19;13.30;99.90
21830;DHT22;11077;50.264;6.798;2023-05-24T13:44:46;13.00;99.90
21830;DHT22;11077;50.264;6.798;2023-05-24T13:47:13;12.90;99.90
21830;DHT22;11077;50.264;6.798;2023-05-24T13:49:44;12.80;99.90
21830;DHT22;11077;50.264;6.798;2023-05-24T13:52:13;12.80;99.90
21830;DHT22;11077;50.264;6.798;2023-05-24T13:54:41;12.70;99.90
21830;DHT22;11077;50.264;6.798;2023-05-24T13:57:08;12.70;99.90
21830;DHT22;11077;50.264;6.798;2023-05-24T13:59:35;12.50;99.90
21830;DHT22;11077;50.264;6.798;2023-05-24T14:02:02;12.30;99.90
21830;DHT22;11077;50.264;6.798;2023-05-24T14:04:30;12.30;99.90
21830;DHT22;11077;50.264;6.798;2023-05-24T14:06:57;12.20;99.90
21830;DHT22;11077;50.264;6.798;2023-05-24T14:09:25;12.20;99.90
21830;DHT22;11077;50.264;6.798;2023-05-24T14:11:53;12.30;99.90
21830;DHT22;11077;50.264;6.798;2023-05-24T14:14:20;12.30;99.90
21830;DHT22;11077;50.264;6.798;2023-05-24T14:16:47;12.30;99.90
21830;DHT22;11077;50.264;6.798;2023-05-24T14:19:17;12.30;99.90
21830;DHT22;11077;50.264;6.798;2023-05-24T14:21:44;12.30;99.90
21830;DHT22;11077;50.264;6.798;2023-05-24T14:24:11;12.10;99.90
21830;DHT22;11077;50.264;6.798;2023-05-24T14:26:40;12.00;99.90
21830;DHT22;11077;50.264;6.798;2023-05-24T14:29:07;12.00;99.90
21830;DHT22;11077;50.264;6.798;2023-05-24T14:31:35;11.90;99.90
21830;DHT22;11077;50.264;6.798;2023-05-24T14:34:07;11.90;99.90
21830;DHT22;11077;50.264;6.798;2023-05-24T14:36:36;11.90;99.90
21830;DHT22;11077;50.264;6.798;2023-05-24T14:39:05;12.00;99.90
21830;DHT22;11077;50.264;6.798;2023-05-24T14:41:32;12.00;99.90
21830;DHT22;11077;50.264;6.798;2023-05-24T14:44:01;12.00;99.90
21830;DHT22;11077;50.264;6.798;2023-05-24T14:46:28;12.10;99.90
21830;DHT22;11077;50.264;6.798;2023-05-24T14:48:55;12.10;99.90
21830;DHT22;11077;50.264;6.798;2023-05-24T14:51:23;12.20;99.90
21830;DHT22;11077;50.264;6.798;2023-05-24T14:53:50;12.20;99.90
21830;DHT22;11077;50.264;6.798;2023-05-24T14:56:17;12.20;99.90
21830;DHT22;11077;50.264;6.798;2023-05-24T14:58:44;12.20;99.90
21830;DHT22;11077;50.264;6.798;2023-05-24T15:01:13;12.20;99.90
21830;DHT22;11077;50.264;6.798;2023-05-24T15:03:40;12.10;99.90
21830;DHT22;11077;50.264;6.798;2023-05-24T15:06:07;12.10;99.90
21830;DHT22;11077;50.264;6.798;2023-05-24T15:08:34;12.00;99.90
21830;DHT22;11077;50.264;6.798;2023-05-24T15:11:01;12.00;99.90
21830;DHT22;11077;50.264;6.798;2023-05-24T15:13:29;12.10;99.90
21830;DHT22;11077;50.264;6.798;2023-05-24T15:15:57;12.10;99.90
21830;DHT22;11077;50.264;6.798;2023-05-24T15:18:28;12.00;99.90
21830;DHT22;11077;50.264;6.798;2023-05-24T15:20:56;12.10;99.90
21830;DHT22;11077;50.264;6.798;2023-05-24T15:23:24;12.20;99.90
21830;DHT22;11077;50.264;6.798;2023-05-24T15:25:51;12.20;99.90
21830;DHT22;11077;50.264;6.798;2023-05-24T15:28:18;12.30;99.90
21830;DHT22;11077;50.264;6.798;2023-05-24T15:30:45;12.30;99.90
21830;DHT22;11077;50.264;6.798;2023-05-24T15:33:13;12.30;99.90
21830;DHT22;11077;50.264;6.798;2023-05-24T15:35:43;12.30;99.90
21830;DHT22;11077;50.264;6.798;2023-05-24T15:38:10;12.40;99.90
21830;DHT22;11077;50.264;6.798;2023-05-24T15:40:38;12.50;99.90
21830;DHT22;11077;50.264;6.798;2023-05-24T15:43:07;12.60;99.90
21830;DHT22;11077;50.264;6.798;2023-05-24T15:45:34;12.50;99.90
21830;DHT22;11077;50.264;6.798;2023-05-24T15:48:01;12.50;99.90
21830;DHT22;11077;50.264;6.798;2023-05-24T15:50:29;12.40;99.90